sensor_id;sensor_type;location;lat;lon;timestamp;P1;durP1;ratioP1;P2;durP2;ratioP2
57593;SDS011;43423;46.510;6.686;2023-04-08T00:00:02;2.67;;;1.88;;
57593;SDS011;43423;46.510;6.686;2023-04-08T00:02:28;3.55;;;1.95;;
57593;SDS011;43423;46.510;6.686;2023-04-08T00:04:54;2.47;;;1.63;;
57593;SDS011;43423;46.510;6.686;2023-04-08T00:07:19;2.70;;;2.00;;
57593;SDS011;43423;46.510;6.686;2023-04-08T00:09:45;4.38;;;2.00;;
57593;SDS011;43423;46.510;6.686;2023-04-08T00:12:10;3.22;;;2.05;;
57593;SDS011;43423;46.510;6.686;2023-04-08T00:14:36;2.35;;;1.70;;
57593;SDS011;43423;46.510;6.686;2023-04-08T00:17:02;3.50;;;1.90;;
57593;SDS011;43423;46.510;6.686;2023-04-08T00:19:28;5.47;;;2.22;;
57593;SDS011;43423;46.510;6.686;2023-04-08T00:21:53;5.43;;;1.85;;
57593;SDS011;43423;46.510;6.686;2023-04-08T00:24:19;4.05;;;1.85;;
57593;SDS011;43423;46.510;6.686;2023-04-08T00:26:44;6.70;;;1.80;;
57593;SDS011;43423;46.510;6.686;2023-04-08T00:29:10;3.00;;;1.75;;
57593;SDS011;43423;46.510;6.686;2023-04-08T00:31:35;3.38;;;1.70;;
57593;SDS011;43423;46.510;6.686;2023-04-08T00:34:01;3.88;;;1.83;;
57593;SDS011;43423;46.510;6.686;2023-04-08T00:36:26;4.88;;;2.10;;
57593;SDS011;43423;46.510;6.686;2023-04-08T00:38:52;1.92;;;1.70;;
57593;SDS011;43423;46.510;6.686;2023-04-08T00:41:18;5.10;;;1.80;;
57593;SDS011;43423;46.510;6.686;2023-04-08T00:43:43;3.92;;;2.22;;
57593;SDS011;43423;46.510;6.686;2023-04-08T00:46:09;2.85;;;1.60;;
57593;SDS011;43423;46.510;6.686;2023-04-08T00:48:35;3.40;;;2.08;;
57593;SDS011;43423;46.510;6.686;2023-04-08T00:51:01;2.78;;;1.95;;
57593;SDS011;43423;46.510;6.686;2023-04-08T00:53:29;3.22;;;2.03;;
57593;SDS011;43423;46.510;6.686;2023-04-08T00:55:55;3.33;;;1.92;;
57593;SDS011;43423;46.510;6.686;2023-04-08T00:58:21;6.00;;;2.15;;
57593;SDS011;43423;46.510;6.686;2023-04-08T01:00:49;3.95;;;1.83;;
57593;SDS011;43423;46.510;6.686;2023-04-08T01:04:38;4.68;;;2.00;;
57593;SDS011;43423;46.510;6.686;2023-04-08T01:06:45;4.05;;;1.90;;
57593;SDS011;43423;46.510;6.686;2023-04-08T01:09:17;3.25;;;1.80;;
57593;SDS011;43423;46.510;6.686;2023-04-08T01:11:45;4.85;;;2.40;;
57593;SDS011;43423;46.510;6.686;2023-04-08T01:14:22;3.22;;;1.60;;
57593;SDS011;43423;46.510;6.686;2023-04-08T01:16:51;5.20;;;1.85;;
57593;SDS011;43423;46.510;6.686;2023-04-08T01:19:28;4.17;;;2.87;;
57593;SDS011;43423;46.510;6.686;2023-04-08T01:22:00;2.92;;;2.00;;
57593;SDS011;43423;46.510;6.686;2023-04-08T01:24:38;6.57;;;2.58;;
57593;SDS011;43423;46.510;6.686;2023-04-08T01:27:06;5.38;;;2.42;;
57593;SDS011;43423;46.510;6.686;2023-04-08T01:29:34;3.10;;;2.22;;
57593;SDS011;43423;46.510;6.686;2023-04-08T01:32:01;3.67;;;2.28;;
57593;SDS011;43423;46.510;6.686;2023-04-08T01:34:28;4.38;;;1.98;;
57593;SDS011;43423;46.510;6.686;2023-04-08T01:36:57;3.20;;;2.00;;
57593;SDS011;43423;46.510;6.686;2023-04-08T01:39:23;4.15;;;2.13;;
57593;SDS011;43423;46.510;6.686;2023-04-08T01:41:50;5.20;;;2.15;;
57593;SDS011;43423;46.510;6.686;2023-04-08T01:44:19;4.72;;;2.00;;
57593;SDS011;43423;46.510;6.686;2023-04-08T01:46:46;2.78;;;1.77;;
57593;SDS011;43423;46.510;6.686;2023-04-08T01:49:14;3.92;;;1.80;;
57593;SDS011;43423;46.510;6.686;2023-04-08T01:51:40;3.05;;;1.98;;
57593;SDS011;43423;46.510;6.686;2023-04-08T01:54:06;4.60;;;2.67;;
57593;SDS011;43423;46.510;6.686;2023-04-08T01:56:32;3.55;;;1.85;;
57593;SDS011;43423;46.510;6.686;2023-04-08T01:59:02;4.25;;;2.30;;
57593;SDS011;43423;46.510;6.686;2023-04-08T02:01:33;4.70;;;2.20;;
57593;SDS011;43423;46.510;6.686;2023-04-08T02:03:59;4.50;;;2.00;;
57593;SDS011;43423;46.510;6.686;2023-04-08T02:06:27;3.50;;;1.80;;
57593;SDS011;43423;46.510;6.686;2023-04-08T02:08:54;2.35;;;2.13;;
57593;SDS011;43423;46.510;6.686;2023-04-08T02:11:20;2.40;;;2.05;;
57593;SDS011;43423;46.510;6.686;2023-04-08T02:13:46;4.60;;;2.15;;
57593;SDS011;43423;46.510;6.686;2023-04-08T02:16:22;5.85;;;2.28;;
57593;SDS011;43423;46.510;6.686;2023-04-08T02:18:55;4.32;;;2.33;;
57593;SDS011;43423;46.510;6.686;2023-04-08T02:21:31;5.20;;;2.50;;
57593;SDS011;43423;46.510;6.686;2023-04-08T02:24:02;4.75;;;2.45;;
57593;SDS011;43423;46.510;6.686;2023-04-08T02:26:32;3.10;;;2.08;;
57593;SDS011;43423;46.510;6.686;2023-04-08T02:29:01;4.07;;;2.75;;
57593;SDS011;43423;46.510;6.686;2023-04-08T02:31:29;5.70;;;2.63;;
57593;SDS011;43423;46.510;6.686;2023-04-08T02:33:55;5.03;;;2.42;;
57593;SDS011;43423;46.510;6.686;2023-04-08T02:36:22;3.55;;;2.45;;
57593;SDS011;43423;46.510;6.686;2023-04-08T02:38:48;4.63;;;2.60;;
57593;SDS011;43423;46.510;6.686;2023-04-08T02:41:14;4.55;;;2.53;;
57593;SDS011;43423;46.510;6.686;2023-04-08T02:43:41;3.22;;;2.22;;
57593;SDS011;43423;46.510;6.686;2023-04-08T02:46:06;4.82;;;2.72;;
57593;SDS011;43423;46.510;6.686;2023-04-08T02:48:33;2.60;;;2.20;;
57593;SDS011;43423;46.510;6.686;2023-04-08T02:50:58;4.80;;;2.40;;
57593;SDS011;43423;46.510;6.686;2023-04-08T02:53:24;5.32;;;2.58;;
57593;SDS011;43423;46.510;6.686;2023-04-08T02:55:50;3.50;;;2.20;;
57593;SDS011;43423;46.510;6.686;2023-04-08T02:58:16;5.03;;;2.30;;
57593;SDS011;43423;46.510;6.686;2023-04-08T03:00:41;3.65;;;2.28;;
57593;SDS011;43423;46.510;6.686;2023-04-08T03:03:07;3.45;;;2.55;;
57593;SDS011;43423;46.510;6.686;2023-04-08T03:05:32;4.35;;;2.13;;
57593;SDS011;43423;46.510;6.686;2023-04-08T03:07:58;3.03;;;2.15;;
57593;SDS011;43423;46.510;6.686;2023-04-08T03:10:23;2.78;;;2.42;;
57593;SDS011;43423;46.510;6.686;2023-04-08T03:12:49;4.20;;;2.47;;
57593;SDS011;43423;46.510;6.686;2023-04-08T03:15:15;4.85;;;2.20;;
57593;SDS011;43423;46.510;6.686;2023-04-08T03:17:41;2.58;;;2.22;;
57593;SDS011;43423;46.510;6.686;2023-04-08T03:20:06;2.88;;;2.45;;
57593;SDS011;43423;46.510;6.686;2023-04-08T03:22:33;3.55;;;2.40;;
57593;SDS011;43423;46.510;6.686;2023-04-08T03:24:58;2.90;;;2.22;;
57593;SDS011;43423;46.510;6.686;2023-04-08T03:27:24;3.25;;;2.63;;
57593;SDS011;43423;46.510;6.686;2023-04-08T03:29:50;3.05;;;2.40;;
57593;SDS011;43423;46.510;6.686;2023-04-08T03:32:17;2.83;;;2.28;;
57593;SDS011;43423;46.510;6.686;2023-04-08T03:34:43;4.03;;;2.80;;
57593;SDS011;43423;46.510;6.686;2023-04-08T03:37:08;4.50;;;2.60;;
57593;SDS011;43423;46.510;6.686;2023-04-08T03:39:34;4.05;;;2.70;;
57593;SDS011;43423;46.510;6.686;2023-04-08T03:42:00;4.28;;;2.72;;
57593;SDS011;43423;46.510;6.686;2023-04-08T03:44:27;3.63;;;2.70;;
57593;SDS011;43423;46.510;6.686;2023-04-08T03:46:52;4.22;;;2.85;;
57593;SDS011;43423;46.510;6.686;2023-04-08T03:49:18;5.53;;;3.30;;
57593;SDS011;43423;46.510;6.686;2023-04-08T03:51:44;5.03;;;2.97;;
57593;SDS011;43423;46.510;6.686;2023-04-08T03:54:09;3.10;;;2.72;;
57593;SDS011;43423;46.510;6.686;2023-04-08T03:56:35;3.60;;;3.10;;
57593;SDS011;43423;46.510;6.686;2023-04-08T03:59:00;3.50;;;2.40;;
57593;SDS011;43423;46.510;6.686;2023-04-08T04:01:26;3.88;;;2.53;;
57593;SDS011;43423;46.510;6.686;2023-04-08T04:03:51;3.95;;;2.88;;
57593;SDS011;43423;46.510;6.686;2023-04-08T04:06:17;3.13;;;2.50;;
57593;SDS011;43423;46.510;6.686;2023-04-08T04:08:42;4.25;;;2.60;;
57593;SDS011;43423;46.510;6.686;2023-04-08T04:11:08;2.97;;;2.35;;
57593;SDS011;43423;46.510;6.686;2023-04-08T04:13:33;6.07;;;2.53;;
57593;SDS011;43423;46.510;6.686;2023-04-08T04:15:59;2.88;;;1.85;;
57593;SDS011;43423;46.510;6.686;2023-04-08T04:18:24;4.22;;;2.78;;
57593;SDS011;43423;46.510;6.686;2023-04-08T04:20:50;3.92;;;2.92;;
57593;SDS011;43423;46.510;6.686;2023-04-08T04:23:16;4.30;;;3.50;;
57593;SDS011;43423;46.510;6.686;2023-04-08T04:25:41;5.53;;;2.83;;
57593;SDS011;43423;46.510;6.686;2023-04-08T04:28:08;5.28;;;2.60;;
57593;SDS011;43423;46.510;6.686;2023-04-08T04:30:37;3.63;;;2.85;;
57593;SDS011;43423;46.510;6.686;2023-04-08T04:33:04;5.35;;;3.15;;
57593;SDS011;43423;46.510;6.686;2023-04-08T04:35:31;3.58;;;2.80;;
57593;SDS011;43423;46.510;6.686;2023-04-08T04:37:56;5.28;;;3.13;;
57593;SDS011;43423;46.510;6.686;2023-04-08T04:40:22;4.00;;;3.03;;
57593;SDS011;43423;46.510;6.686;2023-04-08T04:42:48;5.00;;;3.15;;
57593;SDS011;43423;46.510;6.686;2023-04-08T04:45:13;4.55;;;3.28;;
57593;SDS011;43423;46.510;6.686;2023-04-08T04:47:39;5.18;;;3.80;;
57593;SDS011;43423;46.510;6.686;2023-04-08T04:50:05;4.30;;;3.38;;
57593;SDS011;43423;46.510;6.686;2023-04-08T04:52:31;5.32;;;4.15;;
57593;SDS011;43423;46.510;6.686;2023-04-08T04:54:57;7.60;;;4.07;;
57593;SDS011;43423;46.510;6.686;2023-04-08T04:57:23;8.82;;;4.97;;
57593;SDS011;43423;46.510;6.686;2023-04-08T04:59:48;7.55;;;4.53;;
57593;SDS011;43423;46.510;6.686;2023-04-08T05:02:14;7.03;;;3.83;;
57593;SDS011;43423;46.510;6.686;2023-04-08T05:04:40;4.55;;;3.53;;
57593;SDS011;43423;46.510;6.686;2023-04-08T05:07:05;8.75;;;4.72;;
57593;SDS011;43423;46.510;6.686;2023-04-08T05:09:31;6.88;;;4.32;;
57593;SDS011;43423;46.510;6.686;2023-04-08T05:11:56;6.80;;;4.60;;
57593;SDS011;43423;46.510;6.686;2023-04-08T05:14:22;8.52;;;4.68;;
57593;SDS011;43423;46.510;6.686;2023-04-08T05:16:48;8.13;;;4.82;;
57593;SDS011;43423;46.510;6.686;2023-04-08T05:19:13;6.78;;;4.78;;
57593;SDS011;43423;46.510;6.686;2023-04-08T05:21:38;6.60;;;4.47;;
57593;SDS011;43423;46.510;6.686;2023-04-08T05:24:04;6.53;;;4.47;;
57593;SDS011;43423;46.510;6.686;2023-04-08T05:26:30;11.65;;;5.13;;
57593;SDS011;43423;46.510;6.686;2023-04-08T05:28:56;7.63;;;4.97;;
57593;SDS011;43423;46.510;6.686;2023-04-08T05:31:21;6.55;;;4.68;;
57593;SDS011;43423;46.510;6.686;2023-04-08T05:33:47;6.28;;;4.18;;
57593;SDS011;43423;46.510;6.686;2023-04-08T05:36:12;6.68;;;4.45;;
57593;SDS011;43423;46.510;6.686;2023-04-08T05:38:39;8.48;;;4.78;;
57593;SDS011;43423;46.510;6.686;2023-04-08T05:41:06;7.10;;;4.70;;
57593;SDS011;43423;46.510;6.686;2023-04-08T05:43:32;6.97;;;4.90;;
57593;SDS011;43423;46.510;6.686;2023-04-08T05:45:58;8.25;;;5.00;;
57593;SDS011;43423;46.510;6.686;2023-04-08T05:48:24;6.78;;;4.25;;
57593;SDS011;43423;46.510;6.686;2023-04-08T05:50:49;6.82;;;4.47;;
57593;SDS011;43423;46.510;6.686;2023-04-08T05:53:15;6.78;;;4.90;;
57593;SDS011;43423;46.510;6.686;2023-04-08T05:55:41;6.43;;;4.88;;
57593;SDS011;43423;46.510;6.686;2023-04-08T05:58:06;5.78;;;4.10;;
57593;SDS011;43423;46.510;6.686;2023-04-08T06:00:32;7.80;;;4.72;;
57593;SDS011;43423;46.510;6.686;2023-04-08T06:02:58;6.45;;;4.20;;
57593;SDS011;43423;46.510;6.686;2023-04-08T06:05:23;6.05;;;4.25;;
57593;SDS011;43423;46.510;6.686;2023-04-08T06:07:49;6.97;;;4.30;;
57593;SDS011;43423;46.510;6.686;2023-04-08T06:10:15;7.38;;;4.65;;
57593;SDS011;43423;46.510;6.686;2023-04-08T06:12:41;6.70;;;4.30;;
57593;SDS011;43423;46.510;6.686;2023-04-08T06:15:07;6.78;;;4.03;;
57593;SDS011;43423;46.510;6.686;2023-04-08T06:17:37;5.78;;;4.07;;
57593;SDS011;43423;46.510;6.686;2023-04-08T06:20:04;5.55;;;4.18;;
57593;SDS011;43423;46.510;6.686;2023-04-08T06:22:31;5.25;;;4.10;;
57593;SDS011;43423;46.510;6.686;2023-04-08T06:24:56;5.50;;;4.20;;
57593;SDS011;43423;46.510;6.686;2023-04-08T06:27:22;4.95;;;3.60;;
57593;SDS011;43423;46.510;6.686;2023-04-08T06:29:47;4.05;;;3.63;;
57593;SDS011;43423;46.510;6.686;2023-04-08T06:32:13;4.07;;;3.60;;
57593;SDS011;43423;46.510;6.686;2023-04-08T06:34:38;4.18;;;3.70;;
57593;SDS011;43423;46.510;6.686;2023-04-08T06:37:05;5.38;;;3.50;;
57593;SDS011;43423;46.510;6.686;2023-04-08T06:39:31;3.53;;;3.17;;
57593;SDS011;43423;46.510;6.686;2023-04-08T06:41:56;6.43;;;3.33;;
57593;SDS011;43423;46.510;6.686;2023-04-08T06:44:22;3.97;;;3.20;;
57593;SDS011;43423;46.510;6.686;2023-04-08T06:46:48;5.65;;;3.53;;
57593;SDS011;43423;46.510;6.686;2023-04-08T06:49:13;3.55;;;3.15;;
57593;SDS011;43423;46.510;6.686;2023-04-08T06:51:40;4.40;;;3.20;;
57593;SDS011;43423;46.510;6.686;2023-04-08T06:54:05;4.18;;;3.55;;
57593;SDS011;43423;46.510;6.686;2023-04-08T06:56:31;6.05;;;3.20;;
57593;SDS011;43423;46.510;6.686;2023-04-08T06:58:56;6.05;;;3.10;;
57593;SDS011;43423;46.510;6.686;2023-04-08T07:01:22;4.72;;;3.33;;
57593;SDS011;43423;46.510;6.686;2023-04-08T07:03:48;4.00;;;3.30;;
57593;SDS011;43423;46.510;6.686;2023-04-08T07:06:14;5.05;;;3.33;;
57593;SDS011;43423;46.510;6.686;2023-04-08T07:08:40;8.35;;;5.10;;
57593;SDS011;43423;46.510;6.686;2023-04-08T07:11:06;4.18;;;3.25;;
57593;SDS011;43423;46.510;6.686;2023-04-08T07:13:32;5.30;;;3.38;;
57593;SDS011;43423;46.510;6.686;2023-04-08T07:15:58;5.03;;;3.45;;
57593;SDS011;43423;46.510;6.686;2023-04-08T07:18:23;6.72;;;3.40;;
57593;SDS011;43423;46.510;6.686;2023-04-08T07:20:50;5.32;;;3.53;;
57593;SDS011;43423;46.510;6.686;2023-04-08T07:23:20;4.85;;;3.67;;
57593;SDS011;43423;46.510;6.686;2023-04-08T07:25:46;6.20;;;3.40;;
57593;SDS011;43423;46.510;6.686;2023-04-08T07:28:12;4.15;;;3.28;;
57593;SDS011;43423;46.510;6.686;2023-04-08T07:30:38;4.13;;;3.05;;
57593;SDS011;43423;46.510;6.686;2023-04-08T07:33:03;6.03;;;3.65;;
57593;SDS011;43423;46.510;6.686;2023-04-08T07:35:29;4.65;;;3.25;;
57593;SDS011;43423;46.510;6.686;2023-04-08T07:37:56;4.40;;;3.80;;
57593;SDS011;43423;46.510;6.686;2023-04-08T07:40:22;4.65;;;3.30;;
57593;SDS011;43423;46.510;6.686;2023-04-08T07:42:47;4.60;;;3.47;;
57593;SDS011;43423;46.510;6.686;2023-04-08T07:45:13;6.30;;;3.45;;
57593;SDS011;43423;46.510;6.686;2023-04-08T07:47:39;4.13;;;3.38;;
57593;SDS011;43423;46.510;6.686;2023-04-08T07:50:05;5.70;;;3.20;;
57593;SDS011;43423;46.510;6.686;2023-04-08T07:52:32;3.92;;;2.67;;
57593;SDS011;43423;46.510;6.686;2023-04-08T07:54:57;4.22;;;3.05;;
57593;SDS011;43423;46.510;6.686;2023-04-08T07:57:24;3.45;;;2.55;;
57593;SDS011;43423;46.510;6.686;2023-04-08T07:59:50;6.15;;;3.42;;
57593;SDS011;43423;46.510;6.686;2023-04-08T08:02:16;5.05;;;2.83;;
57593;SDS011;43423;46.510;6.686;2023-04-08T08:04:41;5.22;;;3.35;;
57593;SDS011;43423;46.510;6.686;2023-04-08T08:07:07;5.35;;;3.15;;
57593;SDS011;43423;46.510;6.686;2023-04-08T08:09:32;3.83;;;2.75;;
57593;SDS011;43423;46.510;6.686;2023-04-08T08:11:58;4.15;;;2.97;;
57593;SDS011;43423;46.510;6.686;2023-04-08T08:14:23;3.30;;;2.60;;
57593;SDS011;43423;46.510;6.686;2023-04-08T08:16:50;3.70;;;2.10;;
57593;SDS011;43423;46.510;6.686;2023-04-08T08:19:17;5.53;;;2.03;;
57593;SDS011;43423;46.510;6.686;2023-04-08T08:21:42;4.18;;;2.75;;
57593;SDS011;43423;46.510;6.686;2023-04-08T08:24:08;3.25;;;2.20;;
57593;SDS011;43423;46.510;6.686;2023-04-08T08:26:34;3.85;;;2.40;;
57593;SDS011;43423;46.510;6.686;2023-04-08T08:29:01;5.75;;;2.55;;
57593;SDS011;43423;46.510;6.686;2023-04-08T08:31:26;3.47;;;2.45;;
57593;SDS011;43423;46.510;6.686;2023-04-08T08:33:52;3.35;;;2.40;;
57593;SDS011;43423;46.510;6.686;2023-04-08T08:36:17;3.95;;;2.40;;
57593;SDS011;43423;46.510;6.686;2023-04-08T08:38:43;2.83;;;2.47;;
57593;SDS011;43423;46.510;6.686;2023-04-08T08:41:09;3.38;;;2.42;;
57593;SDS011;43423;46.510;6.686;2023-04-08T08:43:34;3.42;;;2.20;;
57593;SDS011;43423;46.510;6.686;2023-04-08T08:46:00;4.30;;;2.38;;
57593;SDS011;43423;46.510;6.686;2023-04-08T08:48:26;3.10;;;2.50;;
57593;SDS011;43423;46.510;6.686;2023-04-08T08:50:51;2.30;;;1.90;;
57593;SDS011;43423;46.510;6.686;2023-04-08T08:53:17;4.07;;;1.90;;
57593;SDS011;43423;46.510;6.686;2023-04-08T08:55:43;3.47;;;1.95;;
57593;SDS011;43423;46.510;6.686;2023-04-08T08:58:09;3.92;;;2.15;;
57593;SDS011;43423;46.510;6.686;2023-04-08T09:00:39;2.90;;;2.20;;
57593;SDS011;43423;46.510;6.686;2023-04-08T09:03:23;2.70;;;2.35;;
57593;SDS011;43423;46.510;6.686;2023-04-08T09:08:34;2.55;;;2.22;;
57593;SDS011;43423;46.510;6.686;2023-04-08T09:11:17;3.78;;;2.13;;
57593;SDS011;43423;46.510;6.686;2023-04-08T09:13:46;3.60;;;2.47;;
57593;SDS011;43423;46.510;6.686;2023-04-08T09:16:15;2.95;;;2.13;;
57593;SDS011;43423;46.510;6.686;2023-04-08T09:18:47;4.13;;;2.33;;
57593;SDS011;43423;46.510;6.686;2023-04-08T09:21:14;3.85;;;2.20;;
57593;SDS011;43423;46.510;6.686;2023-04-08T09:23:44;1.98;;;1.88;;
57593;SDS011;43423;46.510;6.686;2023-04-08T09:26:12;3.80;;;1.95;;
57593;SDS011;43423;46.510;6.686;2023-04-08T09:28:40;4.40;;;2.35;;
57593;SDS011;43423;46.510;6.686;2023-04-08T09:31:20;2.45;;;2.10;;
57593;SDS011;43423;46.510;6.686;2023-04-08T09:33:48;3.92;;;2.10;;
57593;SDS011;43423;46.510;6.686;2023-04-08T09:36:14;4.32;;;2.15;;
57593;SDS011;43423;46.510;6.686;2023-04-08T09:38:41;3.58;;;2.50;;
57593;SDS011;43423;46.510;6.686;2023-04-08T09:41:07;3.75;;;2.60;;
57593;SDS011;43423;46.510;6.686;2023-04-08T09:43:41;4.57;;;2.45;;
57593;SDS011;43423;46.510;6.686;2023-04-08T09:46:12;3.78;;;2.25;;
57593;SDS011;43423;46.510;6.686;2023-04-08T09:48:39;5.53;;;2.40;;
57593;SDS011;43423;46.510;6.686;2023-04-08T09:53:41;4.18;;;2.78;;
57593;SDS011;43423;46.510;6.686;2023-04-08T09:56:11;3.28;;;2.60;;
57593;SDS011;43423;46.510;6.686;2023-04-08T09:58:38;3.55;;;2.72;;
57593;SDS011;43423;46.510;6.686;2023-04-08T10:01:12;2.55;;;2.03;;
57593;SDS011;43423;46.510;6.686;2023-04-08T10:03:39;2.78;;;2.50;;
57593;SDS011;43423;46.510;6.686;2023-04-08T10:06:18;4.13;;;2.33;;
57593;SDS011;43423;46.510;6.686;2023-04-08T10:08:46;2.60;;;2.08;;
57593;SDS011;43423;46.510;6.686;2023-04-08T10:11:13;3.25;;;2.58;;
57593;SDS011;43423;46.510;6.686;2023-04-08T10:13:40;2.92;;;2.38;;
57593;SDS011;43423;46.510;6.686;2023-04-08T10:16:16;3.45;;;2.70;;
57593;SDS011;43423;46.510;6.686;2023-04-08T10:18:43;3.70;;;2.60;;
57593;SDS011;43423;46.510;6.686;2023-04-08T10:23:56;4.63;;;2.40;;
57593;SDS011;43423;46.510;6.686;2023-04-08T10:26:42;6.43;;;3.03;;
57593;SDS011;43423;46.510;6.686;2023-04-08T10:31:53;3.33;;;2.22;;
57593;SDS011;43423;46.510;6.686;2023-04-08T10:34:20;3.08;;;2.45;;
57593;SDS011;43423;46.510;6.686;2023-04-08T10:36:47;5.25;;;2.42;;
57593;SDS011;43423;46.510;6.686;2023-04-08T10:39:13;2.65;;;2.08;;
57593;SDS011;43423;46.510;6.686;2023-04-08T10:41:46;2.60;;;2.40;;
57593;SDS011;43423;46.510;6.686;2023-04-08T10:44:17;4.32;;;2.35;;
57593;SDS011;43423;46.510;6.686;2023-04-08T10:46:43;2.97;;;2.28;;
57593;SDS011;43423;46.510;6.686;2023-04-08T10:49:10;4.20;;;2.67;;
57593;SDS011;43423;46.510;6.686;2023-04-08T10:51:35;6.00;;;3.33;;
57593;SDS011;43423;46.510;6.686;2023-04-08T10:54:06;3.53;;;2.50;;
57593;SDS011;43423;46.510;6.686;2023-04-08T10:56:48;4.82;;;2.38;;
57593;SDS011;43423;46.510;6.686;2023-04-08T10:59:16;4.03;;;2.67;;
57593;SDS011;43423;46.510;6.686;2023-04-08T11:01:50;3.35;;;2.95;;
57593;SDS011;43423;46.510;6.686;2023-04-08T11:04:17;3.05;;;2.08;;
57593;SDS011;43423;46.510;6.686;2023-04-08T11:06:44;3.25;;;2.28;;
57593;SDS011;43423;46.510;6.686;2023-04-08T11:09:11;4.63;;;2.30;;
57593;SDS011;43423;46.510;6.686;2023-04-08T11:11:37;2.75;;;2.13;;
57593;SDS011;43423;46.510;6.686;2023-04-08T11:14:03;2.42;;;1.77;;
57593;SDS011;43423;46.510;6.686;2023-04-08T11:16:30;2.83;;;2.50;;
57593;SDS011;43423;46.510;6.686;2023-04-08T11:18:56;2.53;;;2.05;;
57593;SDS011;43423;46.510;6.686;2023-04-08T11:21:22;2.13;;;1.80;;
57593;SDS011;43423;46.510;6.686;2023-04-08T11:23:49;3.30;;;2.25;;
57593;SDS011;43423;46.510;6.686;2023-04-08T11:26:15;3.22;;;2.20;;
57593;SDS011;43423;46.510;6.686;2023-04-08T11:28:42;2.72;;;2.35;;
57593;SDS011;43423;46.510;6.686;2023-04-08T11:31:08;2.42;;;2.22;;
57593;SDS011;43423;46.510;6.686;2023-04-08T11:33:35;4.18;;;2.78;;
57593;SDS011;43423;46.510;6.686;2023-04-08T11:36:01;3.25;;;2.00;;
57593;SDS011;43423;46.510;6.686;2023-04-08T11:38:30;4.15;;;2.45;;
57593;SDS011;43423;46.510;6.686;2023-04-08T11:40:56;2.60;;;2.10;;
57593;SDS011;43423;46.510;6.686;2023-04-08T11:43:23;2.83;;;2.25;;
57593;SDS011;43423;46.510;6.686;2023-04-08T11:45:48;4.32;;;2.30;;
57593;SDS011;43423;46.510;6.686;2023-04-08T11:48:15;2.80;;;2.42;;
57593;SDS011;43423;46.510;6.686;2023-04-08T11:50:41;3.25;;;2.22;;
57593;SDS011;43423;46.510;6.686;2023-04-08T11:53:15;2.65;;;2.08;;
57593;SDS011;43423;46.510;6.686;2023-04-08T11:55:42;3.60;;;2.15;;
57593;SDS011;43423;46.510;6.686;2023-04-08T11:58:07;2.30;;;2.00;;
57593;SDS011;43423;46.510;6.686;2023-04-08T12:00:33;2.38;;;2.03;;
57593;SDS011;43423;46.510;6.686;2023-04-08T12:02:58;3.03;;;2.25;;
57593;SDS011;43423;46.510;6.686;2023-04-08T12:05:24;2.47;;;2.22;;
57593;SDS011;43423;46.510;6.686;2023-04-08T12:07:50;2.85;;;2.00;;
57593;SDS011;43423;46.510;6.686;2023-04-08T12:10:15;2.85;;;2.05;;
57593;SDS011;43423;46.510;6.686;2023-04-08T12:12:41;2.47;;;2.03;;
57593;SDS011;43423;46.510;6.686;2023-04-08T12:15:07;3.03;;;2.03;;
57593;SDS011;43423;46.510;6.686;2023-04-08T12:17:33;2.28;;;2.08;;
57593;SDS011;43423;46.510;6.686;2023-04-08T12:20:00;3.15;;;2.30;;
57593;SDS011;43423;46.510;6.686;2023-04-08T12:22:25;2.30;;;2.03;;
57593;SDS011;43423;46.510;6.686;2023-04-08T12:24:51;3.20;;;2.30;;
57593;SDS011;43423;46.510;6.686;2023-04-08T12:27:17;3.90;;;2.28;;
57593;SDS011;43423;46.510;6.686;2023-04-08T12:29:42;2.38;;;1.90;;
57593;SDS011;43423;46.510;6.686;2023-04-08T12:32:10;2.35;;;2.10;;
57593;SDS011;43423;46.510;6.686;2023-04-08T12:34:36;3.10;;;2.33;;
57593;SDS011;43423;46.510;6.686;2023-04-08T12:37:01;2.60;;;1.92;;
57593;SDS011;43423;46.510;6.686;2023-04-08T12:39:27;2.25;;;1.83;;
57593;SDS011;43423;46.510;6.686;2023-04-08T12:41:53;2.10;;;1.90;;
57593;SDS011;43423;46.510;6.686;2023-04-08T12:44:18;2.42;;;2.22;;
57593;SDS011;43423;46.510;6.686;2023-04-08T12:46:44;1.90;;;1.70;;
57593;SDS011;43423;46.510;6.686;2023-04-08T12:49:10;1.70;;;1.50;;
57593;SDS011;43423;46.510;6.686;2023-04-08T12:51:36;2.05;;;1.60;;
57593;SDS011;43423;46.510;6.686;2023-04-08T12:54:02;2.22;;;1.98;;
57593;SDS011;43423;46.510;6.686;2023-04-08T12:56:28;2.65;;;1.80;;
57593;SDS011;43423;46.510;6.686;2023-04-08T12:58:55;1.50;;;1.40;;
57593;SDS011;43423;46.510;6.686;2023-04-08T13:01:22;1.88;;;1.48;;
57593;SDS011;43423;46.510;6.686;2023-04-08T13:03:47;2.63;;;1.52;;
57593;SDS011;43423;46.510;6.686;2023-04-08T13:06:13;1.88;;;1.67;;
57593;SDS011;43423;46.510;6.686;2023-04-08T13:08:39;1.83;;;1.55;;
57593;SDS011;43423;46.510;6.686;2023-04-08T13:11:06;1.90;;;1.80;;
57593;SDS011;43423;46.510;6.686;2023-04-08T13:13:32;3.47;;;1.67;;
57593;SDS011;43423;46.510;6.686;2023-04-08T13:15:58;1.88;;;1.75;;
57593;SDS011;43423;46.510;6.686;2023-04-08T13:18:24;2.55;;;1.80;;
57593;SDS011;43423;46.510;6.686;2023-04-08T13:20:49;2.38;;;2.00;;
57593;SDS011;43423;46.510;6.686;2023-04-08T13:23:15;2.83;;;1.70;;
57593;SDS011;43423;46.510;6.686;2023-04-08T13:25:42;2.17;;;1.67;;
57593;SDS011;43423;46.510;6.686;2023-04-08T13:28:09;3.25;;;2.20;;
57593;SDS011;43423;46.510;6.686;2023-04-08T13:30:35;2.58;;;1.95;;
57593;SDS011;43423;46.510;6.686;2023-04-08T13:33:01;2.40;;;2.00;;
57593;SDS011;43423;46.510;6.686;2023-04-08T13:35:26;3.53;;;2.45;;
57593;SDS011;43423;46.510;6.686;2023-04-08T13:37:52;2.47;;;1.90;;
57593;SDS011;43423;46.510;6.686;2023-04-08T13:40:17;1.80;;;1.67;;
57593;SDS011;43423;46.510;6.686;2023-04-08T13:42:43;2.25;;;1.85;;
57593;SDS011;43423;46.510;6.686;2023-04-08T13:45:08;3.35;;;2.03;;
57593;SDS011;43423;46.510;6.686;2023-04-08T13:47:34;2.25;;;1.70;;
57593;SDS011;43423;46.510;6.686;2023-04-08T13:50:00;2.28;;;2.00;;
57593;SDS011;43423;46.510;6.686;2023-04-08T13:52:25;2.38;;;2.08;;
57593;SDS011;43423;46.510;6.686;2023-04-08T13:54:51;2.08;;;1.70;;
57593;SDS011;43423;46.510;6.686;2023-04-08T13:57:17;2.75;;;1.60;;
57593;SDS011;43423;46.510;6.686;2023-04-08T13:59:42;1.67;;;1.58;;
57593;SDS011;43423;46.510;6.686;2023-04-08T14:02:08;1.98;;;1.40;;
57593;SDS011;43423;46.510;6.686;2023-04-08T14:04:34;1.98;;;1.70;;
57593;SDS011;43423;46.510;6.686;2023-04-08T14:06:59;2.60;;;2.28;;
57593;SDS011;43423;46.510;6.686;2023-04-08T14:09:25;3.60;;;2.00;;
57593;SDS011;43423;46.510;6.686;2023-04-08T14:11:50;2.13;;;1.92;;
57593;SDS011;43423;46.510;6.686;2023-04-08T14:14:16;2.60;;;2.20;;
57593;SDS011;43423;46.510;6.686;2023-04-08T14:16:41;2.65;;;2.08;;
57593;SDS011;43423;46.510;6.686;2023-04-08T14:19:08;2.90;;;2.05;;
57593;SDS011;43423;46.510;6.686;2023-04-08T14:21:33;3.05;;;2.40;;
57593;SDS011;43423;46.510;6.686;2023-04-08T14:23:59;2.42;;;1.90;;
57593;SDS011;43423;46.510;6.686;2023-04-08T14:26:24;3.53;;;2.10;;
57593;SDS011;43423;46.510;6.686;2023-04-08T14:28:50;2.92;;;2.33;;
57593;SDS011;43423;46.510;6.686;2023-04-08T14:31:16;2.88;;;2.35;;
57593;SDS011;43423;46.510;6.686;2023-04-08T14:33:41;2.78;;;2.00;;
57593;SDS011;43423;46.510;6.686;2023-04-08T14:36:07;2.78;;;2.20;;
57593;SDS011;43423;46.510;6.686;2023-04-08T14:38:34;2.40;;;2.20;;
57593;SDS011;43423;46.510;6.686;2023-04-08T14:41:00;3.15;;;2.40;;
57593;SDS011;43423;46.510;6.686;2023-04-08T14:43:26;2.78;;;2.22;;
57593;SDS011;43423;46.510;6.686;2023-04-08T14:45:51;2.63;;;2.17;;
57593;SDS011;43423;46.510;6.686;2023-04-08T14:48:17;2.97;;;2.30;;
57593;SDS011;43423;46.510;6.686;2023-04-08T14:50:43;3.63;;;2.33;;
57593;SDS011;43423;46.510;6.686;2023-04-08T14:53:09;4.55;;;2.10;;
57593;SDS011;43423;46.510;6.686;2023-04-08T14:55:35;2.28;;;1.90;;